createdAt,value
2022-11-17T00:02:19.003Z,93.75
2022-11-17T00:04:45.859Z,93.06
2022-11-17T00:07:12.546Z,92.67
2022-11-17T00:09:39.256Z,93.45
2022-11-17T00:12:28.472Z,93.11
2022-11-17T00:14:59.148Z,92.76
2022-11-17T00:17:25.956Z,93.14
2022-11-17T00:20:11.020Z,93.25
2022-11-17T00:22:37.784Z,92.49
2022-11-17T00:25:04.648Z,92.28
2022-11-17T00:27:31.252Z,92.46
2022-11-17T00:29:57.960Z,92.82
2022-11-17T00:32:57.048Z,93.96
2022-11-17T00:35:24.072Z,93.47
2022-11-17T00:38:09.258Z,93.51
2022-11-17T00:40:36.057Z,93.34
2022-11-17T00:43:02.628Z,93.87
2022-11-17T00:45:29.277Z,94.26
2022-11-17T00:47:56.082Z,94.48
2022-11-17T00:50:24.167Z,94.58
2022-11-17T00:52:50.808Z,95.05
2022-11-17T00:55:17.447Z,95.06
2022-11-17T00:57:44.131Z,94.57
2022-11-17T01:00:11.147Z,94.21
2022-11-17T01:02:37.996Z,93.49
2022-11-17T01:05:04.957Z,93.15
2022-11-17T01:07:31.584Z,93.78
2022-11-17T01:09:58.237Z,93.37
2022-11-17T01:12:24.831Z,93.44
2022-11-17T01:14:51.473Z,93.51
2022-11-17T01:17:18.080Z,93.42
2022-11-17T01:19:44.660Z,92.78
2022-11-17T01:22:11.256Z,93.74
2022-11-17T01:24:38.025Z,94.39
2022-11-17T01:27:04.617Z,93.93
2022-11-17T01:29:31.234Z,93.92
2022-11-17T01:31:58.094Z,94.15
2022-11-17T01:34:24.698Z,92.99
2022-11-17T01:37:09.908Z,92.59
2022-11-17T01:39:36.607Z,92.41
2022-11-17T01:42:11.573Z,91.79
2022-11-17T01:44:44.638Z,92.74
2022-11-17T01:47:35.036Z,93.09
2022-11-17T01:50:22.004Z,92.19
2022-11-17T01:52:52.458Z,92.40
2022-11-17T01:55:21.300Z,92.47
2022-11-17T01:57:54.971Z,93.60
2022-11-17T02:00:21.741Z,94.11
2022-11-17T02:02:48.982Z,93.98
2022-11-17T02:05:37.113Z,93.97
2022-11-17T02:08:06.445Z,94.08
2022-11-17T02:10:35.245Z,94.42
2022-11-17T02:13:02.601Z,94.44
2022-11-17T02:15:30.254Z,94.23
2022-11-17T02:17:58.468Z,94.76
2022-11-17T02:20:48.780Z,94.24
2022-11-17T02:23:28.599Z,93.86
2022-11-17T02:27:12.409Z,94.08
2022-11-17T02:30:00.438Z,94.08
2022-11-17T02:32:31.170Z,94.15
2022-11-17T02:35:03.549Z,94.87
2022-11-17T02:37:30.109Z,95.76
2022-11-17T02:40:07.580Z,94.54
2022-11-17T02:42:59.194Z,95.44
2022-11-17T02:45:31.864Z,96.10
2022-11-17T02:48:00.592Z,95.93
2022-11-17T02:50:29.798Z,96.08
2022-11-17T02:52:57.117Z,95.62
2022-11-17T02:55:23.710Z,95.28
2022-11-17T02:57:50.254Z,95.21
2022-11-17T03:00:19.039Z,94.74
2022-11-17T03:03:13.274Z,95.55
2022-11-17T03:06:11.854Z,94.94
2022-11-17T03:08:52.518Z,95.19
2022-11-17T03:11:27.272Z,95.51
2022-11-17T03:14:01.190Z,95.09
2022-11-17T03:16:37.569Z,94.80
2022-11-17T03:19:19.235Z,94.86
2022-11-17T03:21:55.056Z,94.61
2022-11-17T03:24:28.756Z,94.30
2022-11-17T03:27:18.069Z,93.61
2022-11-17T03:29:49.359Z,93.88
2022-11-17T03:32:18.064Z,94.35
2022-11-17T03:34:50.836Z,93.77
2022-11-17T03:37:21.299Z,94.75
2022-11-17T03:39:52.692Z,94.34
2022-11-17T03:42:27.852Z,94.33
2022-11-17T03:45:03.711Z,94.24
2022-11-17T03:47:33.510Z,94.12
2022-11-17T03:50:09.080Z,94.53
2022-11-17T03:52:38.189Z,94.67
2022-11-17T03:55:06.836Z,94.80
2022-11-17T03:57:50.324Z,94.79
2022-11-17T04:00:18.957Z,93.34
2022-11-17T04:02:48.130Z,92.70
2022-11-17T04:05:17.444Z,94.31
2022-11-17T04:07:46.756Z,93.98
2022-11-17T04:10:16.495Z,92.52
2022-11-17T04:13:01.775Z,92.82
2022-11-17T04:15:47.085Z,92.30
2022-11-17T04:18:14.758Z,92.80
2022-11-17T04:20:41.720Z,92.77
2022-11-17T04:23:12.181Z,94.03
2022-11-17T04:26:05.991Z,94.41
2022-11-17T04:28:37.473Z,94.39
2022-11-17T04:31:14.425Z,94.30
2022-11-17T04:33:52.315Z,94.07
2022-11-17T04:36:22.381Z,94.34
2022-11-17T04:38:51.264Z,94.26
2022-11-17T04:41:38.160Z,93.35
2022-11-17T04:44:07.031Z,92.87
2022-11-17T04:46:35.689Z,93.05
2022-11-17T04:49:03.352Z,93.56
2022-11-17T04:51:31.447Z,92.37
2022-11-17T04:53:58.700Z,92.18
2022-11-17T04:56:26.701Z,92.17
2022-11-17T04:58:53.820Z,92.38
2022-11-17T05:01:22.374Z,92.89
2022-11-17T05:04:06.424Z,92.00
2022-11-17T05:06:40.481Z,91.56
2022-11-17T05:09:11.068Z,91.88
2022-11-17T05:11:56.263Z,91.76
2022-11-17T05:14:25.028Z,91.47
2022-11-17T05:17:11.002Z,90.93
2022-11-17T05:19:41.531Z,90.56
2022-11-17T05:22:28.491Z,91.03
2022-11-17T05:24:55.730Z,92.10
2022-11-17T05:27:24.012Z,92.53
2022-11-17T05:29:50.879Z,92.30
2022-11-17T05:32:18.255Z,92.14
2022-11-17T05:34:44.893Z,92.53
2022-11-17T05:37:11.564Z,93.69
2022-11-17T05:39:38.180Z,94.18
2022-11-17T05:42:05.004Z,93.83
2022-11-17T05:44:31.595Z,93.54
2022-11-17T05:46:58.673Z,93.48
2022-11-17T05:49:25.257Z,93.66
2022-11-17T05:51:53.129Z,93.33
2022-11-17T05:54:20.618Z,92.61
2022-11-17T05:56:52.606Z,93.39
2022-11-17T05:59:46.858Z,92.67
2022-11-17T06:02:24.058Z,92.58
2022-11-17T06:04:51.855Z,92.57
2022-11-17T06:07:19.631Z,92.36
2022-11-17T06:09:46.869Z,92.07
2022-11-17T06:12:15.564Z,91.52
2022-11-17T06:14:42.752Z,91.54
2022-11-17T06:17:22.119Z,92.24
2022-11-17T06:19:57.841Z,92.37
2022-11-17T06:22:26.882Z,92.95
2022-11-17T06:24:54.338Z,91.89
2022-11-17T06:27:21.244Z,90.86
2022-11-17T06:29:49.470Z,90.16
2022-11-17T06:32:18.255Z,90.07
2022-11-17T06:34:51.907Z,90.48
2022-11-17T06:37:21.972Z,89.84
2022-11-17T06:39:48.528Z,89.26
2022-11-17T06:42:15.574Z,89.58
2022-11-17T06:44:42.484Z,89.13
2022-11-17T06:47:09.056Z,89.56
2022-11-17T06:49:35.621Z,89.49
2022-11-17T06:52:02.323Z,88.76
2022-11-17T06:54:28.940Z,87.24
2022-11-17T06:56:55.652Z,86.39
2022-11-17T06:59:22.702Z,85.49
2022-11-17T07:01:49.315Z,84.54
2022-11-17T07:04:15.950Z,83.30
2022-11-17T07:06:42.860Z,81.63
2022-11-17T07:09:09.610Z,80.62
2022-11-17T07:11:36.516Z,80.88
2022-11-17T07:14:03.914Z,78.40
2022-11-17T07:16:31.231Z,78.67
2022-11-17T07:18:59.398Z,77.97
2022-11-17T07:21:26.446Z,77.93
2022-11-17T07:23:53.315Z,79.04
2022-11-17T07:26:19.982Z,79.35
2022-11-17T07:28:46.815Z,79.18
2022-11-17T07:31:13.452Z,77.85
2022-11-17T07:33:40.072Z,78.21
2022-11-17T07:36:09.788Z,77.36
2022-11-17T07:38:39.186Z,76.96
2022-11-17T07:41:07.177Z,76.68
2022-11-17T07:43:35.340Z,76.76
2022-11-17T07:46:06.343Z,75.62
2022-11-17T07:48:33.738Z,74.39
2022-11-17T07:51:01.663Z,73.67
2022-11-17T07:53:29.128Z,73.85
2022-11-17T07:55:56.076Z,74.01
2022-11-17T07:58:25.749Z,73.78
2022-11-17T08:00:52.465Z,72.48
2022-11-17T08:03:19.231Z,72.97
2022-11-17T08:05:45.964Z,72.92
2022-11-17T08:08:13.723Z,73.49
2022-11-17T08:10:40.701Z,72.96
2022-11-17T08:13:07.746Z,72.96
2022-11-17T08:15:36.168Z,71.85
2022-11-17T08:18:03.485Z,72.20
2022-11-17T08:20:30.402Z,71.41
2022-11-17T08:22:57.076Z,70.46
2022-11-17T08:25:26.227Z,70.85
2022-11-17T08:27:57.955Z,71.20
2022-11-17T08:30:25.820Z,72.25
2022-11-17T08:32:53.805Z,72.40
2022-11-17T08:35:23.149Z,73.46
2022-11-17T08:37:49.817Z,75.30
2022-11-17T08:40:18.145Z,75.11
2022-11-17T08:42:45.590Z,76.59
2022-11-17T08:45:13.240Z,76.40
2022-11-17T08:47:40.395Z,76.63
2022-11-17T08:50:07.756Z,78.17
2022-11-17T08:52:34.408Z,79.54
2022-11-17T08:55:01.098Z,80.19
2022-11-17T08:57:29.912Z,80.19
2022-11-17T08:59:56.583Z,80.08
2022-11-17T09:02:23.461Z,79.46
2022-11-17T09:04:50.864Z,80.19
2022-11-17T09:07:18.392Z,80.39
2022-11-17T09:09:46.428Z,80.05
2022-11-17T09:12:13.285Z,80.07
2022-11-17T09:14:39.996Z,78.56
2022-11-17T09:17:06.818Z,77.99
2022-11-17T09:19:33.804Z,77.24
2022-11-17T09:22:00.453Z,77.85
2022-11-17T09:24:27.320Z,77.96
2022-11-17T09:26:55.201Z,76.43
2022-11-17T09:29:24.012Z,73.88
2022-11-17T09:31:50.693Z,74.97
2022-11-17T09:34:17.499Z,73.82
2022-11-17T09:36:44.171Z,73.54
2022-11-17T09:39:11.014Z,74.39
2022-11-17T09:41:51.952Z,74.63
2022-11-17T09:44:30.623Z,74.30
2022-11-17T09:47:16.856Z,72.99
2022-11-17T09:50:36.584Z,73.01
2022-11-17T09:53:39.299Z,72.00
2022-11-17T09:56:08.975Z,73.71
2022-11-17T09:58:50.615Z,73.22
2022-11-17T10:01:19.460Z,72.07
2022-11-17T10:03:48.669Z,71.12
2022-11-17T10:06:19.648Z,69.80
2022-11-17T10:09:04.778Z,69.55
2022-11-17T10:11:35.127Z,71.62
2022-11-17T10:14:15.870Z,69.46
2022-11-17T10:16:53.978Z,68.74
2022-11-17T10:19:24.406Z,68.19
2022-11-17T10:22:02.967Z,67.58
2022-11-17T10:24:38.461Z,68.23
2022-11-17T10:27:27.274Z,67.20
2022-11-17T10:30:14.996Z,66.55
2022-11-17T10:32:53.035Z,68.46
2022-11-17T10:35:26.083Z,67.66
2022-11-17T10:37:55.694Z,67.71
2022-11-17T10:40:26.111Z,66.88
2022-11-17T10:43:14.029Z,67.62
2022-11-17T10:45:49.655Z,67.34
2022-11-17T10:48:26.230Z,67.78
2022-11-17T10:51:02.823Z,68.42
2022-11-17T10:53:36.871Z,70.13
2022-11-17T10:56:11.163Z,69.91
2022-11-17T10:59:02.461Z,70.89
2022-11-17T11:01:32.285Z,69.86
2022-11-17T11:03:59.317Z,68.35
2022-11-17T11:06:29.628Z,68.95
2022-11-17T11:09:20.952Z,66.18
2022-11-17T11:11:54.251Z,66.23
2022-11-17T11:14:40.530Z,67.01
2022-11-17T11:17:15.958Z,65.90
2022-11-17T11:19:46.034Z,67.35
2022-11-17T11:22:35.768Z,66.85
2022-11-17T11:25:05.699Z,67.60
2022-11-17T11:27:46.223Z,66.61
2022-11-17T11:30:16.777Z,65.39
2022-11-17T11:32:52.417Z,66.44
2022-11-17T11:35:37.192Z,65.27
2022-11-17T11:38:06.478Z,64.89
2022-11-17T11:40:40.005Z,64.68
2022-11-17T11:43:18.700Z,62.90
2022-11-17T11:46:14.856Z,64.46
2022-11-17T11:48:41.728Z,67.93
2022-11-17T11:51:16.739Z,67.20
2022-11-17T11:54:08.752Z,66.74
2022-11-17T11:56:53.871Z,63.97
2022-11-17T11:59:20.562Z,62.94
2022-11-17T12:02:11.843Z,65.38
2022-11-17T12:04:49.125Z,64.28
2022-11-17T12:07:26.022Z,63.99
2022-11-17T12:10:24.630Z,62.62
2022-11-17T12:12:51.508Z,60.84
2022-11-17T12:15:21.200Z,61.12
2022-11-17T12:18:13.312Z,65.49
2022-11-17T12:20:40.981Z,64.29
2022-11-17T12:23:35.149Z,64.93
2022-11-17T12:26:02.843Z,64.14
2022-11-17T12:28:32.586Z,63.24
2022-11-17T12:31:06.743Z,64.38
2022-11-17T12:33:54.325Z,60.51
2022-11-17T12:36:29.668Z,58.98
2022-11-17T12:39:01.654Z,61.62
2022-11-17T12:41:50.132Z,58.42
2022-11-17T12:44:50.590Z,62.31
2022-11-17T12:47:20.277Z,60.85
2022-11-17T12:50:14.532Z,59.07
2022-11-17T12:52:53.482Z,61.48
2022-11-17T12:55:54.907Z,61.36
2022-11-17T12:58:41.691Z,62.83
2022-11-17T13:01:36.310Z,64.98
2022-11-17T13:04:19.286Z,65.93
2022-11-17T13:07:04.320Z,67.40
2022-11-17T13:09:33.543Z,72.30
2022-11-17T13:12:01.971Z,72.81
2022-11-17T13:14:28.667Z,74.19
2022-11-17T13:16:55.597Z,74.36
2022-11-17T13:19:34.945Z,74.15
2022-11-17T13:22:06.359Z,72.80
2022-11-17T13:24:37.385Z,73.73
2022-11-17T13:27:07.558Z,72.25
2022-11-17T13:29:34.386Z,74.00
2022-11-17T13:32:13.604Z,73.49
2022-11-17T13:34:51.432Z,75.92
2022-11-17T13:37:21.780Z,76.33
2022-11-17T13:40:00.836Z,78.85
2022-11-17T13:42:31.942Z,80.26
2022-11-17T13:45:01.799Z,77.37
2022-11-17T13:47:42.427Z,76.02
2022-11-17T13:50:27.017Z,79.88
2022-11-17T13:53:13.105Z,80.29
2022-11-17T13:55:47.117Z,80.44
2022-11-17T13:58:26.425Z,79.99
2022-11-17T14:00:58.656Z,81.85
2022-11-17T14:03:39.900Z,82.73
2022-11-17T14:06:11.657Z,82.09
2022-11-17T14:08:40.245Z,80.75
2022-11-17T14:11:09.941Z,80.18
2022-11-17T14:13:40.608Z,80.31
2022-11-17T14:16:20.754Z,81.21
2022-11-17T14:19:03.157Z,80.94
2022-11-17T14:21:30.655Z,81.20
2022-11-17T14:24:11.674Z,82.07
2022-11-17T14:26:44.775Z,80.29
2022-11-17T14:29:13.065Z,79.93
2022-11-17T14:31:39.704Z,79.39
2022-11-17T14:34:06.371Z,79.25
2022-11-17T14:36:33.669Z,80.33
2022-11-17T14:39:02.116Z,81.30
2022-11-17T14:41:29.197Z,82.07
2022-11-17T14:43:56.109Z,81.33
2022-11-17T14:46:27.130Z,80.91
2022-11-17T14:48:54.150Z,82.92
2022-11-17T14:51:21.449Z,82.47
2022-11-17T14:53:48.037Z,81.10
2022-11-17T14:56:19.234Z,82.41
2022-11-17T14:58:47.022Z,83.66
2022-11-17T15:01:28.522Z,83.62
2022-11-17T15:03:57.020Z,84.96
2022-11-17T15:06:24.414Z,85.43
2022-11-17T15:09:02.324Z,86.22
2022-11-17T15:11:39.141Z,88.44
2022-11-17T15:14:06.998Z,88.05
2022-11-17T15:16:33.803Z,88.31
2022-11-17T15:19:00.407Z,88.42
2022-11-17T15:21:27.155Z,88.36
2022-11-17T15:23:53.941Z,88.44
2022-11-17T15:26:23.512Z,89.21
2022-11-17T15:28:50.429Z,88.72
2022-11-17T15:31:19.996Z,89.18
2022-11-17T15:33:48.125Z,89.80
2022-11-17T15:36:19.477Z,89.60
2022-11-17T15:38:47.544Z,90.98
2022-11-17T15:41:15.103Z,90.05
2022-11-17T15:43:43.939Z,90.37
2022-11-17T15:46:13.168Z,90.45
2022-11-17T15:48:44.942Z,90.28
2022-11-17T15:51:14.577Z,90.09
2022-11-17T15:53:42.406Z,90.40
2022-11-17T15:56:12.588Z,89.81
2022-11-17T15:58:41.086Z,90.71
2022-11-17T16:01:28.902Z,90.52
2022-11-17T16:04:03.650Z,91.35
2022-11-17T16:06:31.894Z,91.42
2022-11-17T16:08:58.411Z,89.28
2022-11-17T16:11:26.968Z,88.00
2022-11-17T16:13:55.155Z,89.29
2022-11-17T16:16:23.359Z,88.03
2022-11-17T16:18:49.885Z,87.91
2022-11-17T16:21:17.484Z,86.54
2022-11-17T16:23:53.167Z,87.48
2022-11-17T16:26:21.165Z,87.23
2022-11-17T16:28:48.008Z,87.78
2022-11-17T16:31:23.308Z,88.76
2022-11-17T16:33:54.972Z,88.12
2022-11-17T16:36:23.692Z,86.43
2022-11-17T16:39:00.806Z,86.43
2022-11-17T16:41:36.179Z,86.66
2022-11-17T16:44:06.815Z,89.19
2022-11-17T16:46:33.490Z,90.00
2022-11-17T16:49:07.045Z,91.09
2022-11-17T16:51:34.117Z,91.54
2022-11-17T16:54:03.362Z,91.60
2022-11-17T16:56:30.775Z,91.54
2022-11-17T16:58:58.731Z,91.76
2022-11-17T17:01:30.564Z,91.63
2022-11-17T17:04:02.986Z,91.58
2022-11-17T17:06:29.956Z,90.36
2022-11-17T17:09:01.398Z,90.59
2022-11-17T17:11:29.347Z,90.11
2022-11-17T17:13:58.860Z,90.81
2022-11-17T17:16:26.163Z,91.68
2022-11-17T17:18:59.275Z,90.71
2022-11-17T17:21:26.986Z,90.69
2022-11-17T17:23:53.955Z,90.39
2022-11-17T17:26:22.728Z,89.65
2022-11-17T17:28:51.043Z,90.14
2022-11-17T17:31:21.719Z,89.67
2022-11-17T17:33:50.279Z,91.34
2022-11-17T17:36:22.432Z,91.94
2022-11-17T17:38:55.438Z,90.09
2022-11-17T17:41:24.706Z,90.58
2022-11-17T17:43:59.423Z,90.27
2022-11-17T17:46:29.603Z,90.74
2022-11-17T17:48:56.913Z,90.96
2022-11-17T17:51:25.191Z,90.06
2022-11-17T17:53:53.677Z,90.14
2022-11-17T17:56:21.778Z,91.15
2022-11-17T17:58:49.171Z,89.59
2022-11-17T18:01:21.425Z,88.50
2022-11-17T18:03:50.315Z,88.39
2022-11-17T18:06:19.761Z,88.83
2022-11-17T18:08:46.855Z,89.79
2022-11-17T18:11:19.578Z,89.39
2022-11-17T18:13:48.510Z,89.84
2022-11-17T18:16:21.765Z,89.04
2022-11-17T18:18:49.328Z,89.44
2022-11-17T18:21:18.384Z,88.75
2022-11-17T18:23:45.872Z,89.02
2022-11-17T18:26:18.353Z,87.37
2022-11-17T18:28:59.022Z,87.95
2022-11-17T18:31:28.613Z,87.81
2022-11-17T18:34:01.295Z,87.51
2022-11-17T18:36:28.870Z,88.94
2022-11-17T18:38:57.581Z,89.10
2022-11-17T18:41:25.301Z,90.37
2022-11-17T18:43:52.564Z,89.80
2022-11-17T18:46:21.640Z,90.34
2022-11-17T18:48:51.832Z,90.81
2022-11-17T18:51:23.598Z,92.60
2022-11-17T18:53:51.789Z,91.71
2022-11-17T18:56:24.080Z,93.26
2022-11-17T18:58:50.822Z,91.99
2022-11-17T19:01:19.091Z,90.55
2022-11-17T19:03:48.050Z,89.98
2022-11-17T19:06:16.455Z,91.55
2022-11-17T19:08:43.663Z,91.84
2022-11-17T19:11:11.902Z,91.18
2022-11-17T19:13:40.716Z,89.74
2022-11-17T19:16:16.363Z,90.91
2022-11-17T19:18:44.706Z,91.34
2022-11-17T19:21:17.335Z,91.52
2022-11-17T19:23:51.094Z,91.72
2022-11-17T19:26:21.371Z,92.45
2022-11-17T19:28:48.074Z,92.18
2022-11-17T19:31:19.572Z,91.61
2022-11-17T19:33:48.091Z,91.49
2022-11-17T19:36:16.171Z,91.56
2022-11-17T19:38:43.483Z,91.93
2022-11-17T19:41:13.350Z,91.29
2022-11-17T19:43:45.134Z,92.02
2022-11-17T19:46:15.084Z,91.83
2022-11-17T19:48:43.217Z,92.72
2022-11-17T19:51:20.067Z,93.11
2022-11-17T19:53:51.712Z,93.37
2022-11-17T19:56:19.033Z,93.49
2022-11-17T19:58:46.524Z,93.56
2022-11-17T20:01:17.268Z,93.85
2022-11-17T20:03:44.613Z,94.19
2022-11-17T20:06:13.772Z,94.97
2022-11-17T20:08:40.519Z,95.52
2022-11-17T20:11:21.990Z,94.94
2022-11-17T20:13:49.138Z,95.08
2022-11-17T20:16:19.146Z,94.77
2022-11-17T20:18:50.094Z,95.75
2022-11-17T20:21:16.910Z,95.30
2022-11-17T20:23:43.870Z,95.68
2022-11-17T20:26:23.117Z,95.90
2022-11-17T20:28:49.995Z,96.72
2022-11-17T20:31:24.375Z,96.39
2022-11-17T20:33:52.022Z,96.95
2022-11-17T20:36:20.632Z,95.98
2022-11-17T20:38:52.170Z,95.24
2022-11-17T20:41:21.109Z,95.22
2022-11-17T20:43:49.236Z,96.14
2022-11-17T20:46:15.795Z,97.43
2022-11-17T20:48:42.539Z,96.82
2022-11-17T20:51:18.110Z,97.92
2022-11-17T20:53:45.135Z,98.17
2022-11-17T20:56:13.133Z,97.45
2022-11-17T20:58:40.436Z,96.78
2022-11-17T21:01:12.662Z,96.76
2022-11-17T21:03:39.292Z,96.88
2022-11-17T21:08:47.227Z,97.23
2022-11-17T21:11:36.380Z,97.01
2022-11-17T21:14:05.531Z,96.54
2022-11-17T21:16:32.396Z,95.59
2022-11-17T21:18:59.582Z,95.54
2022-11-17T21:21:26.448Z,94.99
2022-11-17T21:23:54.335Z,96.34
2022-11-17T21:26:23.083Z,95.62
2022-11-17T21:28:50.248Z,96.19
2022-11-17T21:31:19.454Z,96.57
2022-11-17T21:33:46.618Z,96.12
2022-11-17T21:36:17.342Z,94.75
2022-11-17T21:38:45.505Z,94.26
2022-11-17T21:41:15.034Z,95.40
2022-11-17T21:43:43.099Z,95.84
2022-11-17T21:46:13.043Z,96.35
2022-11-17T21:48:40.102Z,96.37
2022-11-17T21:51:13.898Z,96.53
2022-11-17T21:53:40.672Z,96.35
2022-11-17T21:56:07.895Z,96.34
2022-11-17T21:58:34.718Z,96.03
2022-11-17T22:01:13.384Z,96.54
2022-11-17T22:03:41.717Z,96.71
2022-11-17T22:06:14.391Z,96.71
2022-11-17T22:08:43.066Z,97.15
2022-11-17T22:11:14.219Z,96.64
2022-11-17T22:13:42.019Z,96.48
2022-11-17T22:16:13.776Z,95.76
2022-11-17T22:18:41.530Z,96.60
2022-11-17T22:21:09.195Z,96.19
2022-11-17T22:23:35.946Z,96.36
2022-11-17T22:26:05.134Z,95.40
2022-11-17T22:28:31.952Z,94.86
2022-11-17T22:30:58.766Z,95.22
2022-11-17T22:33:25.460Z,95.78
2022-11-17T22:35:52.462Z,95.41
2022-11-17T22:38:19.248Z,94.38
2022-11-17T22:40:45.880Z,93.87
2022-11-17T22:43:15.412Z,95.16
2022-11-17T22:45:42.696Z,96.36
2022-11-17T22:48:09.541Z,96.75
2022-11-17T22:50:36.489Z,96.96
2022-11-17T22:53:03.202Z,95.93
2022-11-17T22:55:30.241Z,96.46
2022-11-17T22:57:56.916Z,96.60
2022-11-17T23:00:23.711Z,96.82
2022-11-17T23:02:50.440Z,97.28
2022-11-17T23:05:17.317Z,96.97
2022-11-17T23:07:44.568Z,96.77
2022-11-17T23:10:12.211Z,97.05
2022-11-17T23:12:38.991Z,95.65
2022-11-17T23:15:07.197Z,96.40
2022-11-17T23:17:34.885Z,97.03
2022-11-17T23:20:01.766Z,96.13
2022-11-17T23:22:28.460Z,94.93
2022-11-17T23:24:55.084Z,96.54
2022-11-17T23:27:21.789Z,94.62
2022-11-17T23:29:48.528Z,95.33
2022-11-17T23:32:15.112Z,96.64
2022-11-17T23:34:42.016Z,95.04
2022-11-17T23:37:08.678Z,96.09
2022-11-17T23:39:35.221Z,96.65
2022-11-17T23:42:01.987Z,97.41
2022-11-17T23:44:28.620Z,96.96
2022-11-17T23:46:55.436Z,96.70
2022-11-17T23:49:22.116Z,95.15
2022-11-17T23:51:48.734Z,96.40
2022-11-17T23:54:15.335Z,96.41
2022-11-17T23:56:41.929Z,97.67
2022-11-17T23:59:08.780Z,96.80
